Time,TemperatureF,DewpointF,PressureIn,WindDirection,WindDirectionDegrees,WindSpeedMPH,WindSpeedGustMPH,Humidity,HourlyPrecipIn,Conditions,Clouds,dailyrainin,SoftwareType,DateUTC
2013-09-19 00:01:00,75.9,70.8,29.43,North,0,0.0,0.0,84,0.00,,,1.10,WUHU21623XXSP,2013-09-19 04:01:00,
2013-09-19 00:06:00,75.7,70.6,29.43,NNE,22,0.0,0.0,84,0.00,,,0.00,WUHU21623XXSP,2013-09-19 04:06:00,
2013-09-19 00:11:00,75.7,70.6,29.43,NNE,22,0.0,0.0,84,0.00,,,0.00,WUHU21623XXSP,2013-09-19 04:11:00,
2013-09-19 00:16:00,75.7,70.6,29.43,NNE,22,0.0,0.0,84,0.00,,,0.00,WUHU21623XXSP,2013-09-19 04:16:00,
2013-09-19 00:21:00,75.7,70.6,29.43,NNE,22,0.0,0.0,84,0.00,,,0.00,WUHU21623XXSP,2013-09-19 04:21:00,
2013-09-19 00:26:00,75.7,70.6,29.43,NNE,22,0.0,0.0,84,0.00,,,0.00,WUHU21623XXSP,2013-09-19 04:26:00,
2013-09-19 00:31:00,75.9,70.8,29.44,NNE,22,0.0,0.0,84,0.00,,,0.00,WUHU21623XXSP,2013-09-19 04:31:00,
2013-09-19 00:36:00,75.9,70.8,29.43,NNE,22,0.0,0.0,84,0.00,,,0.00,WUHU21623XXSP,2013-09-19 04:36:00,
2013-09-19 00:41:00,75.9,70.8,29.43,NNE,22,0.0,0.0,84,0.00,,,0.00,WUHU21623XXSP,2013-09-19 04:41:00,
2013-09-19 00:46:00,75.9,70.8,29.43,NNE,22,0.0,0.0,84,0.00,,,0.00,WUHU21623XXSP,2013-09-19 04:46:00,
2013-09-19 00:51:00,75.9,70.8,29.43,NNE,22,0.0,0.0,84,0.00,,,0.00,WUHU21623XXSP,2013-09-19 04:51:00,
2013-09-19 00:56:00,75.7,70.6,29.43,NNE,22,0.0,0.0,84,0.00,,,0.00,WUHU21623XXSP,2013-09-19 04:56:00,
2013-09-19 01:01:00,75.7,70.6,29.43,NNE,22,0.0,0.0,84,0.00,,,0.00,WUHU21623XXSP,2013-09-19 05:01:00,
2013-09-19 01:06:00,75.7,70.6,29.43,NNE,22,0.0,0.0,84,0.00,,,0.00,WUHU21623XXSP,2013-09-19 05:06:00,
2013-09-19 01:11:00,75.7,70.6,29.42,NNE,22,0.0,0.0,84,0.00,,,0.00,WUHU21623XXSP,2013-09-19 05:11:00,
2013-09-19 01:16:00,75.6,70.4,29.43,NNE,22,0.0,0.0,84,0.00,,,0.00,WUHU21623XXSP,2013-09-19 05:16:00,
2013-09-19 01:21:00,75.6,70.4,29.42,NNE,22,0.0,0.0,84,0.00,,,0.00,WUHU21623XXSP,2013-09-19 05:21:00,
2013-09-19 01:26:00,75.6,70.4,29.42,NNE,22,0.0,0.0,84,0.00,,,0.00,WUHU21623XXSP,2013-09-19 05:26:00,
2013-09-19 01:31:00,75.6,70.4,29.42,NNE,22,0.0,0.0,84,0.00,,,0.00,WUHU21623XXSP,2013-09-19 05:31:00,
2013-09-19 01:36:00,75.6,70.4,29.42,NNE,22,0.0,0.0,84,0.00,,,0.00,WUHU21623XXSP,2013-09-19 05:36:00,
2013-09-19 01:41:00,75.6,70.4,29.42,NNE,22,0.0,0.0,84,0.00,,,0.00,WUHU21623XXSP,2013-09-19 05:41:00,
2013-09-19 01:46:00,75.6,70.4,29.42,NNE,22,0.0,0.0,84,0.00,,,0.00,WUHU21623XXSP,2013-09-19 05:46:00,
2013-09-19 01:51:00,75.4,70.6,29.41,NNE,22,0.0,0.0,85,0.00,,,0.00,WUHU21623XXSP,2013-09-19 05:51:00,
2013-09-19 01:56:00,75.4,70.6,29.41,NNE,22,0.0,0.0,85,0.00,,,0.00,WUHU21623XXSP,2013-09-19 05:56:00,
2013-09-19 02:01:00,75.4,70.6,29.41,NNE,22,0.0,0.0,85,0.00,,,0.00,WUHU21623XXSP,2013-09-19 06:01:00,
2013-09-19 02:06:00,75.4,70.6,29.41,NNE,22,0.0,0.0,85,0.00,,,0.00,WUHU21623XXSP,2013-09-19 06:06:00,
2013-09-19 02:11:00,75.4,70.6,29.41,NNE,22,0.0,0.0,85,0.00,,,0.00,WUHU21623XXSP,2013-09-19 06:11:00,
2013-09-19 02:16:00,75.4,70.6,29.41,NNE,22,0.0,0.0,85,0.00,,,0.00,WUHU21623XXSP,2013-09-19 06:16:00,
2013-09-19 02:21:00,75.2,70.4,29.41,NNE,22,0.0,0.0,85,0.00,,,0.00,WUHU21623XXSP,2013-09-19 06:21:00,
2013-09-19 02:26:00,75.2,70.4,29.40,NNE,22,0.0,0.0,85,0.00,,,0.00,WUHU21623XXSP,2013-09-19 06:26:00,
2013-09-19 02:31:00,75.0,70.3,29.40,NNE,22,0.0,0.0,85,0.00,,,0.00,WUHU21623XXSP,2013-09-19 06:31:00,
2013-09-19 02:36:00,75.0,70.3,29.40,NNE,22,0.0,0.0,85,0.00,,,0.00,WUHU21623XXSP,2013-09-19 06:36:00,
2013-09-19 02:41:00,75.0,70.6,29.40,NNE,22,0.0,0.0,86,0.00,,,0.00,WUHU21623XXSP,2013-09-19 06:41:00,
2013-09-19 02:46:00,75.0,70.6,29.39,NNE,22,0.0,0.0,86,0.00,,,0.00,WUHU21623XXSP,2013-09-19 06:46:00,
2013-09-19 02:51:00,75.0,70.6,29.39,NNE,22,0.0,0.0,86,0.00,,,0.00,WUHU21623XXSP,2013-09-19 06:51:00,
2013-09-19 02:56:00,75.0,70.6,29.39,NNE,22,0.0,0.0,86,0.00,,,0.00,WUHU21623XXSP,2013-09-19 06:56:00,
2013-09-19 03:01:00,75.0,70.3,29.39,NNE,22,0.0,0.0,85,0.00,,,0.00,WUHU21623XXSP,2013-09-19 07:01:00,
2013-09-19 03:06:00,75.0,70.6,29.39,NNE,22,0.0,0.0,86,0.00,,,0.00,WUHU21623XXSP,2013-09-19 07:06:00,
2013-09-19 03:11:00,75.0,70.3,29.39,NNE,22,0.0,0.0,85,0.00,,,0.00,WUHU21623XXSP,2013-09-19 07:11:00,
2013-09-19 03:16:00,74.8,70.1,29.38,NNE,22,0.0,0.0,85,0.00,,,0.00,WUHU21623XXSP,2013-09-19 07:16:00,
2013-09-19 03:21:00,75.0,70.3,29.38,NNE,22,0.0,0.0,85,0.00,,,0.00,WUHU21623XXSP,2013-09-19 07:21:00,
2013-09-19 03:26:00,74.8,70.1,29.38,NNE,22,0.0,0.0,85,0.00,,,0.00,WUHU21623XXSP,2013-09-19 07:26:00,
2013-09-19 03:31:00,74.8,70.1,29.38,NNE,22,0.0,0.0,85,0.00,,,0.00,WUHU21623XXSP,2013-09-19 07:31:00,
2013-09-19 03:36:00,75.0,70.6,29.38,NNE,22,0.0,0.0,86,0.00,,,0.00,WUHU21623XXSP,2013-09-19 07:36:00,
2013-09-19 03:41:00,75.0,70.6,29.38,NNE,22,0.0,0.0,86,0.00,,,0.00,WUHU21623XXSP,2013-09-19 07:41:00,
2013-09-19 03:46:00,75.2,70.8,29.38,NNE,22,0.0,0.0,86,0.00,,,0.00,WUHU21623XXSP,2013-09-19 07:46:00,
2013-09-19 03:51:00,75.4,70.9,29.38,NNE,22,0.0,0.0,86,0.00,,,0.00,WUHU21623XXSP,2013-09-19 07:51:00,
2013-09-19 03:56:00,75.0,70.6,29.38,NNE,22,0.0,0.0,86,0.00,,,0.00,WUHU21623XXSP,2013-09-19 07:56:00,
2013-09-19 04:01:00,75.0,70.6,29.38,NNE,22,0.0,0.0,86,0.00,,,0.00,WUHU21623XXSP,2013-09-19 08:01:00,
2013-09-19 04:06:00,75.0,70.6,29.38,NNE,22,0.0,0.0,86,0.00,,,0.00,WUHU21623XXSP,2013-09-19 08:06:00,
2013-09-19 04:11:00,75.0,70.6,29.38,NNE,22,0.0,0.0,86,0.00,,,0.00,WUHU21623XXSP,2013-09-19 08:11:00,
2013-09-19 04:16:00,75.0,70.6,29.37,NNE,22,0.0,0.0,86,0.00,,,0.00,WUHU21623XXSP,2013-09-19 08:16:00,
2013-09-19 04:21:00,75.0,70.6,29.37,NNE,22,0.0,0.0,86,0.00,,,0.00,WUHU21623XXSP,2013-09-19 08:21:00,
2013-09-19 04:26:00,75.0,70.6,29.37,NNE,22,0.0,0.0,86,0.00,,,0.00,WUHU21623XXSP,2013-09-19 08:26:00,
2013-09-19 04:31:00,74.8,70.4,29.37,NNE,22,0.0,0.0,86,0.00,,,0.00,WUHU21623XXSP,2013-09-19 08:31:00,
2013-09-19 04:36:00,74.8,70.4,29.37,NNE,22,0.0,0.0,86,0.00,,,0.00,WUHU21623XXSP,2013-09-19 08:36:00,
2013-09-19 04:41:00,74.8,70.4,29.36,NNE,22,0.0,0.0,86,0.00,,,0.00,WUHU21623XXSP,2013-09-19 08:41:00,
2013-09-19 04:46:00,74.8,70.4,29.36,NNE,22,0.0,0.0,86,0.00,,,0.00,WUHU21623XXSP,2013-09-19 08:46:00,
2013-09-19 04:51:00,74.8,70.4,29.36,NNE,22,0.0,0.0,86,0.00,,,0.00,WUHU21623XXSP,2013-09-19 08:51:00,
2013-09-19 04:56:00,74.8,70.4,29.36,NNE,22,0.0,0.0,86,0.00,,,0.00,WUHU21623XXSP,2013-09-19 08:56:00,
2013-09-19 05:01:00,74.8,70.4,29.37,NNE,22,0.0,0.0,86,0.00,,,0.00,WUHU21623XXSP,2013-09-19 09:01:00,
2013-09-19 05:06:00,74.7,70.2,29.37,NNE,22,0.0,0.0,86,0.00,,,0.00,WUHU21623XXSP,2013-09-19 09:06:00,
2013-09-19 05:11:00,74.7,70.2,29.37,NNE,22,0.0,0.0,86,0.00,,,0.00,WUHU21623XXSP,2013-09-19 09:11:00,
2013-09-19 05:16:00,74.5,70.1,29.37,NNE,22,0.0,0.0,86,0.00,,,0.00,WUHU21623XXSP,2013-09-19 09:16:00,
2013-09-19 05:21:00,74.5,70.1,29.37,NNE,22,0.0,0.0,86,0.00,,,0.00,WUHU21623XXSP,2013-09-19 09:21:00,
2013-09-19 05:26:00,74.5,70.4,29.37,NNE,22,0.0,0.0,87,0.00,,,0.00,WUHU21623XXSP,2013-09-19 09:26:00,
2013-09-19 05:31:00,74.5,70.4,29.37,NNE,22,0.0,0.0,87,0.00,,,0.00,WUHU21623XXSP,2013-09-19 09:31:00,
2013-09-19 05:36:00,74.5,70.4,29.37,NNE,22,0.0,0.0,87,0.00,,,0.00,WUHU21623XXSP,2013-09-19 09:36:00,
2013-09-19 05:41:00,74.5,70.4,29.37,NNE,22,0.0,0.0,87,0.00,,,0.00,WUHU21623XXSP,2013-09-19 09:41:00,
2013-09-19 05:46:00,74.5,70.4,29.37,NNE,22,0.0,0.0,87,0.00,,,0.00,WUHU21623XXSP,2013-09-19 09:46:00,
2013-09-19 05:51:00,74.5,70.4,29.37,NNE,22,0.0,0.0,87,0.00,,,0.00,WUHU21623XXSP,2013-09-19 09:51:00,
2013-09-19 05:56:00,74.5,70.4,29.38,NNE,22,0.0,0.0,87,0.00,,,0.00,WUHU21623XXSP,2013-09-19 09:56:00,
2013-09-19 06:01:00,74.5,70.4,29.38,NNE,22,0.0,0.0,87,0.00,,,0.00,WUHU21623XXSP,2013-09-19 10:01:00,
2013-09-19 06:06:00,74.5,70.4,29.38,NNE,22,0.0,0.0,87,0.00,,,0.00,WUHU21623XXSP,2013-09-19 10:06:00,
2013-09-19 06:11:00,74.5,70.4,29.38,NNE,22,0.0,0.0,87,0.00,,,0.00,WUHU21623XXSP,2013-09-19 10:11:00,
2013-09-19 06:16:00,74.5,70.4,29.38,NNE,22,0.0,0.0,87,0.00,,,0.00,WUHU21623XXSP,2013-09-19 10:16:00,
2013-09-19 06:21:00,74.5,70.4,29.38,NNE,22,0.0,0.0,87,0.00,,,0.00,WUHU21623XXSP,2013-09-19 10:21:00,
2013-09-19 06:26:00,74.5,70.4,29.38,NNE,22,0.0,0.0,87,0.00,,,0.00,WUHU21623XXSP,2013-09-19 10:26:00,
2013-09-19 06:31:00,74.5,70.4,29.39,NNE,22,0.0,0.0,87,0.00,,,0.00,WUHU21623XXSP,2013-09-19 10:31:00,
2013-09-19 06:36:00,74.5,70.4,29.38,NNE,22,0.0,0.0,87,0.00,,,0.00,WUHU21623XXSP,2013-09-19 10:36:00,
2013-09-19 06:41:00,74.5,70.4,29.39,NNE,22,0.0,0.0,87,0.00,,,0.00,WUHU21623XXSP,2013-09-19 10:41:00,
2013-09-19 06:46:00,74.5,70.4,29.39,NNE,22,0.0,0.0,87,0.00,,,0.00,WUHU21623XXSP,2013-09-19 10:46:00,
2013-09-19 06:51:00,74.3,70.2,29.39,NNE,22,0.0,0.0,87,0.00,,,0.00,WUHU21623XXSP,2013-09-19 10:51:00,
2013-09-19 06:56:00,74.3,70.2,29.39,NNE,22,0.0,0.0,87,0.00,,,0.00,WUHU21623XXSP,2013-09-19 10:56:00,
2013-09-19 07:01:00,74.5,70.4,29.39,NNE,22,0.0,0.0,87,0.00,,,0.00,WUHU21623XXSP,2013-09-19 11:01:00,
2013-09-19 07:06:00,74.5,70.4,29.39,NNE,22,0.0,0.0,87,0.00,,,0.00,WUHU21623XXSP,2013-09-19 11:06:00,
2013-09-19 07:12:00,74.5,70.4,29.40,NNE,22,0.0,0.0,87,0.00,,,0.00,WUHU21623XXSP,2013-09-19 11:12:00,
2013-09-19 07:17:00,74.5,70.4,29.40,NNE,22,0.0,0.0,87,0.00,,,0.00,WUHU21623XXSP,2013-09-19 11:17:00,
2013-09-19 07:22:00,74.7,70.6,29.40,NNE,22,0.0,0.0,87,0.00,,,0.00,WUHU21623XXSP,2013-09-19 11:22:00,
2013-09-19 07:27:00,74.7,70.6,29.40,NNE,22,0.0,0.0,87,0.00,,,0.00,WUHU21623XXSP,2013-09-19 11:27:00,
2013-09-19 07:32:00,74.8,70.8,29.40,NNE,22,0.0,0.0,87,0.00,,,0.00,WUHU21623XXSP,2013-09-19 11:32:00,
2013-09-19 07:37:00,74.8,70.8,29.40,NNE,22,0.0,0.0,87,0.00,,,0.00,WUHU21623XXSP,2013-09-19 11:37:00,
2013-09-19 07:42:00,74.8,70.8,29.40,NNE,22,0.0,0.0,87,0.00,,,0.00,WUHU21623XXSP,2013-09-19 11:42:00,
2013-09-19 07:47:00,75.0,70.8,29.40,NNE,22,0.0,0.0,87,0.00,,,0.00,WUHU21623XXSP,2013-09-19 11:47:00,
2013-09-19 07:52:00,75.0,70.9,29.40,NNE,22,0.0,0.0,87,0.00,,,0.00,WUHU21623XXSP,2013-09-19 11:52:00,
2013-09-19 07:57:00,75.2,71.5,29.40,NNE,22,0.0,0.0,88,0.00,,,0.00,WUHU21623XXSP,2013-09-19 11:57:00,
2013-09-19 08:02:00,75.4,71.6,29.40,NNE,22,0.0,0.0,88,0.00,,,0.00,WUHU21623XXSP,2013-09-19 12:02:00,
2013-09-19 08:07:00,75.6,71.8,29.41,NNE,22,0.0,0.0,88,0.00,,,0.00,WUHU21623XXSP,2013-09-19 12:07:00,
2013-09-19 08:12:00,75.9,72.2,29.40,NNE,22,0.0,0.0,88,0.00,,,0.00,WUHU21623XXSP,2013-09-19 12:12:00,
2013-09-19 08:17:00,76.3,72.5,29.41,NNE,22,0.0,0.0,88,0.00,,,0.00,WUHU21623XXSP,2013-09-19 12:17:00,
2013-09-19 08:22:00,76.8,73.0,29.41,NNE,22,0.0,0.0,88,0.00,,,0.00,WUHU21623XXSP,2013-09-19 12:22:00,
2013-09-19 08:27:00,77.4,73.6,29.41,NNE,22,0.0,0.0,88,0.00,,,0.00,WUHU21623XXSP,2013-09-19 12:27:00,
2013-09-19 08:32:00,77.7,73.9,29.41,NNE,22,0.0,0.0,88,0.00,,,0.00,WUHU21623XXSP,2013-09-19 12:32:00,
2013-09-19 08:37:00,77.9,74.1,29.41,NNE,22,0.0,0.0,88,0.00,,,0.00,WUHU21623XXSP,2013-09-19 12:37:00,
2013-09-19 08:42:00,78.4,74.7,29.42,NNE,22,0.0,0.0,88,0.00,,,0.00,WUHU21623XXSP,2013-09-19 12:42:00,
2013-09-19 08:47:00,78.6,74.8,29.42,NNE,22,0.0,0.0,88,0.00,,,0.00,WUHU21623XXSP,2013-09-19 12:47:00,
2013-09-19 08:52:00,78.6,74.8,29.42,NNE,22,0.0,0.0,88,0.00,,,0.00,WUHU21623XXSP,2013-09-19 12:52:00,
2013-09-19 08:57:00,79.0,75.2,29.42,NNE,22,0.0,0.0,88,0.00,,,0.00,WUHU21623XXSP,2013-09-19 12:57:00,
2013-09-19 09:02:00,79.2,75.3,29.42,NNE,22,0.0,0.0,88,0.00,,,0.00,WUHU21623XXSP,2013-09-19 13:02:00,
2013-09-19 09:07:00,79.2,75.3,29.43,NNE,22,0.0,0.0,88,0.00,,,0.00,WUHU21623XXSP,2013-09-19 13:07:00,
2013-09-19 09:12:00,79.9,76.0,29.43,NNE,22,0.0,0.0,88,0.00,,,0.00,WUHU21623XXSP,2013-09-19 13:12:00,
2013-09-19 09:17:00,80.2,76.3,29.43,NNE,22,0.0,0.0,88,0.00,,,0.00,WUHU21623XXSP,2013-09-19 13:17:00,
2013-09-19 09:22:00,79.9,76.2,29.43,NNE,22,0.0,0.0,88,0.00,,,0.00,WUHU21623XXSP,2013-09-19 13:22:00,
2013-09-19 09:27:00,79.9,75.7,29.43,NNE,22,0.0,0.0,87,0.00,,,0.00,WUHU21623XXSP,2013-09-19 13:27:00,
2013-09-19 09:32:00,79.7,75.3,29.43,NNE,22,0.0,0.0,87,0.00,,,0.00,WUHU21623XXSP,2013-09-19 13:32:00,
2013-09-19 09:37:00,79.7,75.5,29.43,NNE,22,0.0,0.0,87,0.00,,,0.00,WUHU21623XXSP,2013-09-19 13:37:00,
2013-09-19 09:42:00,80.4,76.2,29.43,NE,45,0.0,0.0,87,0.00,,,0.00,WUHU21623XXSP,2013-09-19 13:42:00,
2013-09-19 09:47:00,81.0,76.3,29.43,NE,45,0.0,0.0,86,0.00,,,0.00,WUHU21623XXSP,2013-09-19 13:47:00,
2013-09-19 09:52:00,81.5,76.6,29.43,NE,45,0.0,0.0,85,0.00,,,0.00,WUHU21623XXSP,2013-09-19 13:52:00,
2013-09-19 09:57:00,82.2,76.2,29.43,ENE,67,0.0,0.0,82,0.00,,,0.00,WUHU21623XXSP,2013-09-19 13:57:00,
2013-09-19 10:02:00,82.9,76.6,29.43,NNE,22,0.0,0.0,81,0.00,,,0.00,WUHU21623XXSP,2013-09-19 14:02:00,
2013-09-19 10:07:00,83.3,76.4,29.43,ESE,112,0.0,0.0,79,0.00,,,0.00,WUHU21623XXSP,2013-09-19 14:07:00,
2013-09-19 10:12:00,83.8,75.8,29.43,NE,45,0.0,0.0,77,0.00,,,0.00,WUHU21623XXSP,2013-09-19 14:12:00,
2013-09-19 10:17:00,83.8,75.4,29.43,NNE,22,0.0,0.0,76,0.00,,,0.00,WUHU21623XXSP,2013-09-19 14:17:00,
2013-09-19 10:22:00,84.2,75.8,29.44,NE,45,0.0,0.0,76,0.00,,,0.00,WUHU21623XXSP,2013-09-19 14:22:00,
2013-09-19 10:27:00,84.4,76.0,29.44,NE,45,0.0,0.0,76,0.00,,,0.00,WUHU21623XXSP,2013-09-19 14:27:00,
2013-09-19 10:32:00,84.6,76.1,29.44,NE,45,0.0,0.0,75,0.00,,,0.00,WUHU21623XXSP,2013-09-19 14:32:00,
2013-09-19 10:37:00,84.0,75.6,29.44,NE,45,0.0,0.0,75,0.00,,,0.00,WUHU21623XXSP,2013-09-19 14:37:00,
2013-09-19 10:42:00,84.0,75.0,29.44,NE,45,0.0,0.0,75,0.00,,,0.00,WUHU21623XXSP,2013-09-19 14:42:00,
2013-09-19 10:47:00,84.7,75.9,29.44,ESE,112,0.0,0.0,75,0.00,,,0.00,WUHU21623XXSP,2013-09-19 14:47:00,
2013-09-19 10:52:00,85.6,76.4,29.44,ESE,112,0.0,0.0,74,0.00,,,0.00,WUHU21623XXSP,2013-09-19 14:52:00,
2013-09-19 10:57:00,85.3,76.0,29.44,NE,45,0.0,0.0,73,0.00,,,0.00,WUHU21623XXSP,2013-09-19 14:57:00,
2013-09-19 11:02:00,85.5,75.8,29.45,NE,45,0.0,0.0,73,0.00,,,0.00,WUHU21623XXSP,2013-09-19 15:02:00,
2013-09-19 11:07:00,85.6,76.4,29.45,ENE,67,0.0,0.0,74,0.00,,,0.00,WUHU21623XXSP,2013-09-19 15:07:00,
2013-09-19 11:12:00,85.8,76.4,29.45,ENE,67,0.0,0.0,74,0.00,,,0.00,WUHU21623XXSP,2013-09-19 15:12:00,
2013-09-19 11:17:00,86.2,76.6,29.45,NE,45,0.0,0.0,72,0.00,,,0.00,WUHU21623XXSP,2013-09-19 15:17:00,
2013-09-19 11:22:00,86.2,76.2,29.45,SE,135,0.0,0.0,72,0.00,,,0.00,WUHU21623XXSP,2013-09-19 15:22:00,
2013-09-19 11:27:00,87.1,76.6,29.45,ENE,67,0.0,0.0,72,0.00,,,0.00,WUHU21623XXSP,2013-09-19 15:27:00,
2013-09-19 11:32:00,87.4,76.5,29.45,ESE,112,0.0,0.0,70,0.00,,,0.00,WUHU21623XXSP,2013-09-19 15:32:00,
2013-09-19 11:37:00,87.6,76.2,29.45,NE,45,0.0,0.0,69,0.00,,,0.00,WUHU21623XXSP,2013-09-19 15:37:00,
2013-09-19 11:42:00,88.3,76.4,29.45,NE,45,0.0,0.0,68,0.00,,,0.00,WUHU21623XXSP,2013-09-19 15:42:00,
2013-09-19 11:47:00,88.3,75.5,29.45,NE,45,0.0,0.0,66,0.00,,,0.00,WUHU21623XXSP,2013-09-19 15:47:00,
2013-09-19 11:52:00,88.0,75.4,29.45,ENE,67,0.0,0.0,67,0.00,,,0.00,WUHU21623XXSP,2013-09-19 15:52:00,
2013-09-19 11:57:00,88.3,75.4,29.45,NE,45,0.0,0.0,65,0.00,,,0.00,WUHU21623XXSP,2013-09-19 15:57:00,
2013-09-19 12:02:00,88.7,75.7,29.44,East,90,0.0,0.0,66,0.00,,,0.00,WUHU21623XXSP,2013-09-19 16:02:00,
2013-09-19 12:07:00,89.2,75.9,29.44,ENE,67,0.0,0.0,65,0.00,,,0.00,WUHU21623XXSP,2013-09-19 16:07:00,
2013-09-19 12:12:00,89.6,75.8,29.44,SE,135,0.0,0.0,64,0.00,,,0.00,WUHU21623XXSP,2013-09-19 16:12:00,
2013-09-19 12:17:00,89.4,75.8,29.44,NE,45,0.0,0.0,64,0.00,,,0.00,WUHU21623XXSP,2013-09-19 16:17:00,
2013-09-19 12:22:00,89.8,76.0,29.44,NNE,22,0.0,0.0,64,0.00,,,0.00,WUHU21623XXSP,2013-09-19 16:22:00,
2013-09-19 12:27:00,89.4,75.2,29.44,NE,45,0.0,0.0,63,0.00,,,0.00,WUHU21623XXSP,2013-09-19 16:27:00,
2013-09-19 12:32:00,89.4,75.6,29.43,ENE,67,0.0,0.0,64,0.00,,,0.00,WUHU21623XXSP,2013-09-19 16:32:00,
2013-09-19 12:37:00,89.4,75.2,29.43,NE,45,0.0,0.0,63,0.00,,,0.00,WUHU21623XXSP,2013-09-19 16:37:00,
2013-09-19 12:42:00,89.1,75.3,29.43,NE,45,0.0,0.0,64,0.00,,,0.00,WUHU21623XXSP,2013-09-19 16:42:00,
2013-09-19 12:47:00,88.9,75.1,29.43,NE,45,0.0,0.0,64,0.00,,,0.00,WUHU21623XXSP,2013-09-19 16:47:00,
2013-09-19 12:52:00,89.2,75.1,29.43,ESE,112,0.0,0.0,65,0.00,,,0.00,WUHU21623XXSP,2013-09-19 16:52:00,
2013-09-19 12:57:00,90.3,76.9,29.43,NE,45,0.0,0.0,65,0.00,,,0.00,WUHU21623XXSP,2013-09-19 16:57:00,
2013-09-19 13:02:00,90.9,76.5,29.43,ENE,67,0.0,0.0,63,0.00,,,0.00,WUHU21623XXSP,2013-09-19 17:02:00,
2013-09-19 13:07:00,91.2,76.8,29.43,NE,45,0.0,0.0,62,0.00,,,0.00,WUHU21623XXSP,2013-09-19 17:07:00,
2013-09-19 13:12:00,90.7,76.3,29.42,NE,45,0.0,0.0,62,0.00,,,0.00,WUHU21623XXSP,2013-09-19 17:12:00,
2013-09-19 13:17:00,90.1,75.4,29.42,ENE,67,0.0,0.0,62,0.00,,,0.00,WUHU21623XXSP,2013-09-19 17:17:00,
2013-09-19 13:22:00,90.0,75.2,29.42,East,90,0.0,0.0,62,0.00,,,0.00,WUHU21623XXSP,2013-09-19 17:22:00,
2013-09-19 13:27:00,90.1,74.9,29.42,ENE,67,0.0,0.0,61,0.00,,,0.00,WUHU21623XXSP,2013-09-19 17:27:00,
2013-09-19 13:32:00,90.0,74.7,29.42,SE,135,0.0,0.0,61,0.00,,,0.00,WUHU21623XXSP,2013-09-19 17:32:00,
2013-09-19 13:37:00,90.1,75.4,29.42,NE,45,0.0,0.0,62,0.00,,,0.00,WUHU21623XXSP,2013-09-19 17:37:00,
2013-09-19 13:42:00,90.9,76.0,29.41,East,90,0.0,0.0,62,0.00,,,0.00,WUHU21623XXSP,2013-09-19 17:42:00,
2013-09-19 13:47:00,91.2,75.9,29.41,East,90,0.0,0.0,61,0.00,,,0.00,WUHU21623XXSP,2013-09-19 17:47:00,
2013-09-19 13:52:00,91.2,76.3,29.41,NNE,22,0.0,0.0,62,0.00,,,0.00,WUHU21623XXSP,2013-09-19 17:52:00,
2013-09-19 13:57:00,91.2,74.9,29.41,NE,45,0.0,0.0,59,0.00,,,0.00,WUHU21623XXSP,2013-09-19 17:57:00,
2013-09-19 14:02:00,90.5,74.8,29.41,SE,135,0.0,0.0,60,0.00,,,0.00,WUHU21623XXSP,2013-09-19 18:02:00,
2013-09-19 14:07:00,90.3,75.1,29.41,East,90,0.0,0.0,61,0.00,,,0.00,WUHU21623XXSP,2013-09-19 18:07:00,
2013-09-19 14:12:00,89.4,75.2,29.40,NNE,22,0.0,0.0,63,0.00,,,0.00,WUHU21623XXSP,2013-09-19 18:12:00,
2013-09-19 14:17:00,89.8,76.0,29.40,North,0,0.0,0.0,64,0.00,,,0.00,WUHU21623XXSP,2013-09-19 18:17:00,
2013-09-19 14:22:00,91.0,76.2,29.40,NNE,22,0.0,0.0,62,0.00,,,0.00,WUHU21623XXSP,2013-09-19 18:22:00,
2013-09-19 14:27:00,91.2,76.3,29.40,ESE,112,0.0,0.0,62,0.00,,,0.00,WUHU21623XXSP,2013-09-19 18:27:00,
2013-09-19 14:32:00,91.0,76.3,29.40,NE,45,0.0,0.0,61,0.00,,,0.00,WUHU21623XXSP,2013-09-19 18:32:00,
2013-09-19 14:37:00,90.1,75.4,29.40,NE,45,0.0,0.0,62,0.00,,,0.00,WUHU21623XXSP,2013-09-19 18:37:00,
2013-09-19 14:42:00,89.4,75.2,29.40,NE,45,0.0,0.0,63,0.00,,,0.00,WUHU21623XXSP,2013-09-19 18:42:00,
2013-09-19 14:47:00,88.9,75.1,29.40,East,90,0.0,0.0,64,0.00,,,0.00,WUHU21623XXSP,2013-09-19 18:47:00,
2013-09-19 14:52:00,88.2,74.9,29.40,ESE,112,0.0,0.0,65,0.00,,,0.00,WUHU21623XXSP,2013-09-19 18:52:00,
2013-09-19 14:57:00,87.6,74.8,29.39,ESE,112,0.0,0.0,66,0.00,,,0.00,WUHU21623XXSP,2013-09-19 18:57:00,
2013-09-19 15:02:00,87.4,75.1,29.40,NE,45,0.0,0.0,67,0.00,,,0.00,WUHU21623XXSP,2013-09-19 19:02:00,
2013-09-19 15:07:00,87.1,74.3,29.40,NE,45,0.0,0.0,66,0.00,,,0.00,WUHU21623XXSP,2013-09-19 19:07:00,
2013-09-19 15:12:00,87.1,74.3,29.40,NE,45,0.0,0.0,66,0.00,,,0.00,WUHU21623XXSP,2013-09-19 19:12:00,
2013-09-19 15:17:00,86.7,73.5,29.40,NE,45,0.0,0.0,65,0.00,,,0.00,WUHU21623XXSP,2013-09-19 19:17:00,
2013-09-19 15:22:00,86.5,74.3,29.40,NE,45,0.0,0.0,67,0.00,,,0.00,WUHU21623XXSP,2013-09-19 19:22:00,
2013-09-19 15:27:00,86.2,74.4,29.40,ESE,112,0.0,0.0,68,0.00,,,0.00,WUHU21623XXSP,2013-09-19 19:27:00,
2013-09-19 15:32:00,86.2,74.4,29.39,NNE,22,0.0,0.0,68,0.00,,,0.00,WUHU21623XXSP,2013-09-19 19:32:00,
2013-09-19 15:37:00,86.2,74.4,29.40,NE,45,0.0,0.0,68,0.00,,,0.00,WUHU21623XXSP,2013-09-19 19:37:00,
2013-09-19 15:42:00,86.2,74.4,29.40,East,90,0.0,0.0,68,0.00,,,0.00,WUHU21623XXSP,2013-09-19 19:42:00,
2013-09-19 15:47:00,85.8,74.1,29.40,SE,135,0.0,0.0,68,0.00,,,0.00,WUHU21623XXSP,2013-09-19 19:47:00,
2013-09-19 15:52:00,85.6,73.9,29.39,NE,45,0.0,0.0,68,0.00,,,0.00,WUHU21623XXSP,2013-09-19 19:52:00,
2013-09-19 15:57:00,85.3,74.0,29.40,ENE,67,0.0,0.0,69,0.00,,,0.00,WUHU21623XXSP,2013-09-19 19:57:00,
2013-09-19 16:02:00,84.9,73.7,29.40,NE,45,0.0,0.0,69,0.00,,,0.00,WUHU21623XXSP,2013-09-19 20:02:00,
2013-09-19 16:07:00,84.7,73.0,29.39,NE,45,0.0,0.0,68,0.00,,,0.00,WUHU21623XXSP,2013-09-19 20:07:00,
2013-09-19 16:12:00,84.4,72.7,29.39,ESE,112,0.0,0.0,68,0.00,,,0.00,WUHU21623XXSP,2013-09-19 20:12:00,
2013-09-19 16:17:00,84.4,73.1,29.39,NE,45,0.0,0.0,69,0.00,,,0.00,WUHU21623XXSP,2013-09-19 20:17:00,
2013-09-19 16:22:00,84.0,72.8,29.39,ENE,67,0.0,0.0,69,0.00,,,0.00,WUHU21623XXSP,2013-09-19 20:22:00,
2013-09-19 16:27:00,84.0,73.2,29.39,ENE,67,0.0,0.0,70,0.00,,,0.00,WUHU21623XXSP,2013-09-19 20:27:00,
2013-09-19 16:32:00,83.8,73.0,29.39,NE,45,0.0,0.0,70,0.00,,,0.00,WUHU21623XXSP,2013-09-19 20:32:00,
2013-09-19 16:37:00,83.8,73.4,29.39,NE,45,0.0,0.0,71,0.00,,,0.00,WUHU21623XXSP,2013-09-19 20:37:00,
2013-09-19 16:42:00,83.7,73.3,29.39,SE,135,0.0,0.0,71,0.00,,,0.00,WUHU21623XXSP,2013-09-19 20:42:00,
2013-09-19 16:47:00,83.7,73.3,29.39,NE,45,0.0,0.0,71,0.00,,,0.00,WUHU21623XXSP,2013-09-19 20:47:00,
2013-09-19 16:52:00,83.5,73.1,29.39,ENE,67,0.0,0.0,71,0.00,,,0.00,WUHU21623XXSP,2013-09-19 20:52:00,
2013-09-19 16:57:00,83.5,73.1,29.39,NNE,22,0.0,0.0,71,0.00,,,0.00,WUHU21623XXSP,2013-09-19 20:57:00,
2013-09-19 17:02:00,83.7,73.3,29.39,ENE,67,0.0,0.0,71,0.00,,,0.00,WUHU21623XXSP,2013-09-19 21:02:00,
2013-09-19 17:07:00,83.8,73.8,29.39,East,90,0.0,0.0,72,0.00,,,0.00,WUHU21623XXSP,2013-09-19 21:07:00,
2013-09-19 17:12:00,83.7,73.3,29.40,NE,45,0.0,0.0,71,0.00,,,0.00,WUHU21623XXSP,2013-09-19 21:12:00,
2013-09-19 17:17:00,83.5,73.1,29.40,NE,45,0.0,0.0,71,0.00,,,0.00,WUHU21623XXSP,2013-09-19 21:17:00,
2013-09-19 17:22:00,83.5,73.1,29.40,NE,45,0.0,0.0,71,0.00,,,0.00,WUHU21623XXSP,2013-09-19 21:22:00,
2013-09-19 17:27:00,83.5,73.5,29.39,NE,45,0.0,0.0,72,0.00,,,0.00,WUHU21623XXSP,2013-09-19 21:27:00,
2013-09-19 17:32:00,83.3,73.3,29.40,ENE,67,0.0,0.0,72,0.00,,,0.00,WUHU21623XXSP,2013-09-19 21:32:00,
2013-09-19 17:37:00,83.1,73.1,29.40,NE,45,0.0,0.0,72,0.00,,,0.00,WUHU21623XXSP,2013-09-19 21:37:00,
2013-09-19 17:42:00,83.1,73.1,29.40,SE,135,0.0,0.0,72,0.00,,,0.00,WUHU21623XXSP,2013-09-19 21:42:00,
2013-09-19 17:47:00,83.1,73.1,29.40,NE,45,0.0,0.0,72,0.00,,,0.00,WUHU21623XXSP,2013-09-19 21:47:00,
2013-09-19 17:52:00,83.1,72.7,29.40,NNE,22,0.0,0.0,71,0.00,,,0.00,WUHU21623XXSP,2013-09-19 21:52:00,
2013-09-19 17:57:00,83.1,72.7,29.40,ENE,67,0.0,0.0,71,0.00,,,0.00,WUHU21623XXSP,2013-09-19 21:57:00,
2013-09-19 18:02:00,83.1,72.7,29.40,SE,135,0.0,0.0,71,0.00,,,0.00,WUHU21623XXSP,2013-09-19 22:02:00,
2013-09-19 18:07:00,83.3,72.9,29.40,NE,45,0.0,0.0,71,0.00,,,0.00,WUHU21623XXSP,2013-09-19 22:07:00,
2013-09-19 18:12:00,83.3,72.9,29.41,East,90,0.0,0.0,71,0.00,,,0.00,WUHU21623XXSP,2013-09-19 22:12:00,
2013-09-19 18:17:00,83.1,73.1,29.41,ENE,67,0.0,0.0,72,0.00,,,0.00,WUHU21623XXSP,2013-09-19 22:17:00,
2013-09-19 18:22:00,82.9,73.0,29.41,NE,45,0.0,0.0,72,0.00,,,0.00,WUHU21623XXSP,2013-09-19 22:22:00,
2013-09-19 18:27:00,82.8,72.8,29.41,East,90,0.0,0.0,72,0.00,,,0.00,WUHU21623XXSP,2013-09-19 22:27:00,
2013-09-19 18:32:00,82.6,73.0,29.40,NE,45,0.0,0.0,73,0.00,,,0.00,WUHU21623XXSP,2013-09-19 22:32:00,
2013-09-19 18:37:00,82.2,72.7,29.40,East,90,0.0,0.0,73,0.00,,,0.00,WUHU21623XXSP,2013-09-19 22:37:00,
2013-09-19 18:42:00,82.2,72.7,29.41,ESE,112,0.0,0.0,73,0.00,,,0.00,WUHU21623XXSP,2013-09-19 22:42:00,
2013-09-19 18:47:00,82.0,72.9,29.40,ESE,112,0.0,0.0,74,0.00,,,0.00,WUHU21623XXSP,2013-09-19 22:47:00,
2013-09-19 18:52:00,82.0,72.9,29.41,SE,135,0.0,0.0,74,0.00,,,0.00,WUHU21623XXSP,2013-09-19 22:52:00,
2013-09-19 18:57:00,82.0,72.9,29.41,ESE,112,0.0,0.0,74,0.00,,,0.00,WUHU21623XXSP,2013-09-19 22:57:00,
2013-09-19 19:02:00,81.7,72.6,29.41,East,90,0.0,0.0,74,0.00,,,0.00,WUHU21623XXSP,2013-09-19 23:02:00,
2013-09-19 19:07:00,81.5,72.8,29.41,SE,135,0.0,0.0,75,0.00,,,0.00,WUHU21623XXSP,2013-09-19 23:07:00,
2013-09-19 19:12:00,81.3,72.8,29.41,East,90,0.0,0.0,75,0.00,,,0.00,WUHU21623XXSP,2013-09-19 23:12:00,
2013-09-19 19:17:00,81.3,72.6,29.42,ESE,112,0.0,0.0,75,0.00,,,0.00,WUHU21623XXSP,2013-09-19 23:17:00,
2013-09-19 19:22:00,81.1,72.9,29.41,ESE,112,0.0,0.0,76,0.00,,,0.00,WUHU21623XXSP,2013-09-19 23:22:00,
2013-09-19 19:27:00,81.1,72.9,29.42,ESE,112,0.0,0.0,76,0.00,,,0.00,WUHU21623XXSP,2013-09-19 23:27:00,
2013-09-19 19:32:00,81.1,72.9,29.41,East,90,0.0,0.0,76,0.00,,,0.00,WUHU21623XXSP,2013-09-19 23:32:00,
2013-09-19 19:37:00,81.0,72.7,29.41,SE,135,0.0,0.0,76,0.00,,,0.00,WUHU21623XXSP,2013-09-19 23:37:00,
2013-09-19 19:42:00,81.0,72.7,29.41,ESE,112,0.0,0.0,76,0.00,,,0.00,WUHU21623XXSP,2013-09-19 23:42:00,
2013-09-19 19:47:00,81.0,72.7,29.41,ENE,67,0.0,0.0,76,0.00,,,0.00,WUHU21623XXSP,2013-09-19 23:47:00,
2013-09-19 19:52:00,81.0,73.1,29.41,ENE,67,0.0,0.0,77,0.00,,,0.00,WUHU21623XXSP,2013-09-19 23:52:00,
2013-09-19 19:57:00,81.0,73.1,29.42,NE,45,0.0,0.0,77,0.00,,,0.00,WUHU21623XXSP,2013-09-19 23:57:00,
2013-09-19 20:02:00,80.8,72.9,29.42,NE,45,0.0,0.0,77,0.00,,,0.00,WUHU21623XXSP,2013-09-20 00:02:00,
2013-09-19 20:07:00,80.6,72.8,29.42,ENE,67,0.0,0.0,77,0.00,,,0.00,WUHU21623XXSP,2013-09-20 00:07:00,
2013-09-19 20:12:00,80.4,73.0,29.42,East,90,0.0,0.0,78,0.00,,,0.00,WUHU21623XXSP,2013-09-20 00:12:00,
2013-09-19 20:17:00,80.4,73.0,29.42,ESE,112,0.0,0.0,78,0.00,,,0.00,WUHU21623XXSP,2013-09-20 00:17:00,
2013-09-19 20:22:00,80.4,73.0,29.42,ENE,67,0.0,0.0,78,0.00,,,0.00,WUHU21623XXSP,2013-09-20 00:22:00,
2013-09-19 20:27:00,80.4,73.0,29.43,ENE,67,0.0,0.0,78,0.00,,,0.00,WUHU21623XXSP,2013-09-20 00:27:00,
2013-09-19 20:32:00,80.2,72.8,29.43,NE,45,0.0,0.0,78,0.00,,,0.00,WUHU21623XXSP,2013-09-20 00:32:00,
2013-09-19 20:37:00,80.1,73.0,29.43,NE,45,0.0,0.0,79,0.00,,,0.00,WUHU21623XXSP,2013-09-20 00:37:00,
2013-09-19 20:42:00,80.1,73.0,29.43,NE,45,0.0,0.0,79,0.00,,,0.00,WUHU21623XXSP,2013-09-20 00:42:00,
2013-09-19 20:47:00,79.9,72.8,29.43,NNE,22,0.0,0.0,79,0.00,,,0.00,WUHU21623XXSP,2013-09-20 00:47:00,
2013-09-19 20:53:00,79.9,72.8,29.43,ENE,67,0.0,0.0,79,0.02,,,0.02,WUHU21623XXSP,2013-09-20 00:53:00,
2013-09-19 20:58:00,79.9,72.8,29.43,ENE,67,0.0,0.0,79,0.02,,,0.02,WUHU21623XXSP,2013-09-20 00:58:00,
2013-09-19 21:03:00,79.9,72.8,29.43,NE,45,0.0,0.0,79,0.02,,,0.02,WUHU21623XXSP,2013-09-20 01:03:00,
2013-09-19 21:08:00,79.9,72.8,29.43,East,90,0.0,0.0,79,0.02,,,0.02,WUHU21623XXSP,2013-09-20 01:08:00,
2013-09-19 21:13:00,79.9,72.4,29.43,ENE,67,0.0,0.0,78,0.02,,,0.02,WUHU21623XXSP,2013-09-20 01:13:00,
2013-09-19 21:18:00,79.9,72.0,29.44,NE,45,0.0,0.0,77,0.02,,,0.02,WUHU21623XXSP,2013-09-20 01:18:00,
2013-09-19 21:23:00,79.9,71.6,29.44,NE,45,0.0,0.0,76,0.02,,,0.02,WUHU21623XXSP,2013-09-20 01:23:00,
2013-09-19 21:28:00,80.1,71.8,29.43,NE,45,0.0,0.0,76,0.02,,,0.02,WUHU21623XXSP,2013-09-20 01:28:00,
2013-09-19 21:33:00,80.2,72.0,29.44,ENE,67,0.0,0.0,76,0.02,,,0.02,WUHU21623XXSP,2013-09-20 01:33:00,
2013-09-19 21:38:00,80.2,72.0,29.44,NE,45,0.0,0.0,76,0.02,,,0.02,WUHU21623XXSP,2013-09-20 01:38:00,
2013-09-19 21:43:00,80.2,72.0,29.44,NE,45,0.0,0.0,76,0.02,,,0.02,WUHU21623XXSP,2013-09-20 01:43:00,
2013-09-19 21:48:00,80.2,72.0,29.44,NE,45,0.0,0.0,76,0.00,,,0.02,WUHU21623XXSP,2013-09-20 01:48:00,
2013-09-19 21:53:00,80.2,71.6,29.44,ESE,112,0.0,0.0,75,0.00,,,0.02,WUHU21623XXSP,2013-09-20 01:53:00,
2013-09-19 21:58:00,80.2,71.2,29.44,ENE,67,0.0,0.0,74,0.00,,,0.02,WUHU21623XXSP,2013-09-20 01:58:00,
2013-09-19 22:03:00,80.2,71.2,29.45,NE,45,0.0,0.0,74,0.00,,,0.02,WUHU21623XXSP,2013-09-20 02:03:00,
2013-09-19 22:08:00,80.2,71.2,29.45,East,90,0.0,0.0,74,0.00,,,0.02,WUHU21623XXSP,2013-09-20 02:08:00,
2013-09-19 22:13:00,80.2,71.2,29.45,NNE,22,0.0,0.0,74,0.00,,,0.02,WUHU21623XXSP,2013-09-20 02:13:00,
2013-09-19 22:18:00,80.2,71.2,29.45,ENE,67,0.0,0.0,74,0.00,,,0.02,WUHU21623XXSP,2013-09-20 02:18:00,
2013-09-19 22:23:00,80.4,71.4,29.45,ESE,112,0.0,0.0,74,0.00,,,0.02,WUHU21623XXSP,2013-09-20 02:23:00,
2013-09-19 22:28:00,80.4,71.4,29.45,NE,45,0.0,0.0,74,0.00,,,0.02,WUHU21623XXSP,2013-09-20 02:28:00,
2013-09-19 22:33:00,80.2,70.8,29.45,NE,45,0.0,0.0,73,0.00,,,0.02,WUHU21623XXSP,2013-09-20 02:33:00,
2013-09-19 22:38:00,80.2,70.8,29.45,NE,45,0.0,0.0,73,0.00,,,0.02,WUHU21623XXSP,2013-09-20 02:38:00,
2013-09-19 22:43:00,80.2,70.8,29.45,NE,45,0.0,0.0,73,0.00,,,0.02,WUHU21623XXSP,2013-09-20 02:43:00,
2013-09-19 22:48:00,80.2,70.8,29.45,NE,45,0.0,0.0,73,0.00,,,0.02,WUHU21623XXSP,2013-09-20 02:48:00,
2013-09-19 22:53:00,80.2,70.8,29.45,NE,45,0.0,0.0,73,0.00,,,0.02,WUHU21623XXSP,2013-09-20 02:53:00,
2013-09-19 22:58:00,80.2,70.8,29.45,NE,45,0.0,0.0,73,0.00,,,0.02,WUHU21623XXSP,2013-09-20 02:58:00,
2013-09-19 23:03:00,80.2,70.4,29.45,ENE,67,0.0,0.0,72,0.00,,,0.02,WUHU21623XXSP,2013-09-20 03:03:00,
2013-09-19 23:08:00,80.2,70.4,29.45,ESE,112,0.0,0.0,72,0.00,,,0.02,WUHU21623XXSP,2013-09-20 03:08:00,
2013-09-19 23:13:00,80.2,70.0,29.45,NE,45,0.0,0.0,71,0.00,,,0.02,WUHU21623XXSP,2013-09-20 03:13:00,
2013-09-19 23:18:00,80.2,70.4,29.44,NE,45,0.0,0.0,72,0.00,,,0.02,WUHU21623XXSP,2013-09-20 03:18:00,
2013-09-19 23:23:00,80.2,70.4,29.45,NE,45,0.0,0.0,72,0.00,,,0.02,WUHU21623XXSP,2013-09-20 03:23:00,
2013-09-19 23:28:00,80.2,70.4,29.44,ENE,67,0.0,0.0,72,0.00,,,0.02,WUHU21623XXSP,2013-09-20 03:28:00,
2013-09-19 23:33:00,79.9,69.7,29.44,SE,135,0.0,0.0,71,0.00,,,0.02,WUHU21623XXSP,2013-09-20 03:33:00,
2013-09-19 23:38:00,79.9,69.7,29.44,ESE,112,0.0,0.0,71,0.00,,,0.02,WUHU21623XXSP,2013-09-20 03:38:00,
2013-09-19 23:43:00,79.9,69.7,29.44,NNE,22,0.0,0.0,71,0.00,,,0.02,WUHU21623XXSP,2013-09-20 03:43:00,
2013-09-19 23:48:00,79.9,69.3,29.44,ENE,67,0.0,0.0,70,0.00,,,0.02,WUHU21623XXSP,2013-09-20 03:48:00,
2013-09-19 23:53:00,79.9,69.3,29.44,NE,45,0.0,0.0,70,0.00,,,0.02,WUHU21623XXSP,2013-09-20 03:53:00,
2013-09-19 23:58:00,79.7,69.1,29.44,NNE,22,0.0,0.0,70,0.00,,,0.02,WUHU21623XXSP,2013-09-20 03:58:00,